Los Angeles International Airport
KLAX : now visible

Airfield :











YOU CAN JOIN US ON...

 
LOGIN :

Register | Disclaimer

   EN    FR    IT 

 









Legend :    VFR   Marginal VFR   IFR   Intensive IFR   Very Intensive IFR
Visi :
Ceiling :
>= 8 km
>= 3000ft
5 to 8 km
1000 to 3000 ft
1500m to 5 km
500 to 1000 ft
800 to 1500m
200 to 500 ft
< 800m
< 200 ft
Symbols :   Thunderstorms  Fog  Heavy snow  Heavy precipitations  Wind > 20 kt






- Airport Elevation : 125 ft
- IATA code : LAX


KLAX - Los Angeles International

CURRENT METAR :
  • 150953Z 00000KT 10SM FEW004 FEW200 20/17 A2986 RMK AO2 SLP110 T02000167

EXPIRED METARs :
  • 150853Z 30005KT 10SM FEW004 FEW200 21/16 A2988 RMK AO2 SLP115 T02060156 58002
  • 150848Z 31003KT 10SM FEW004 FEW200 21/16 A2988 RMK AO2
  • 150753Z 02003KT 10SM FEW200 21/16 A2989 RMK AO2 SLP118 T02060156 402670200

TAF KLAX
Valid from the 15 at 09:00 until the 16 at 12:00 UTC


150850Z 1509/1612 VRB03KT P6SM SKC
FM151200 VRB03KT 6SM BR FEW005
FM151600 26010KT P6SM SCT008
FM160400 VRB03KT P6SM SKC
KZLA FIR / North America



MET'MAP, your aeronautical weather chart ! - Copyright ORBIFLY December 2007 - Disclaimer

ORBIFLY MET'MAP TEAM :

Programming & Development : Alexandra Zaïnal
Original concept : Baudouin d'Aumeries
Technical & hardware support : Manuel Goepfert
Assistance : Marc-Olivier Méhu




SOURCES & CREDITS :

   NOAA       Earth
Advisory